sensor_id;sensor_type;location;lat;lon;timestamp;P1;durP1;ratioP1;P2;durP2;ratioP2
17259;SDS011;8746;49.230;9.220;2024-02-14T00:00:01;11.47;;;8.43;;
17259;SDS011;8746;49.230;9.220;2024-02-14T00:02:27;9.27;;;8.27;;
17259;SDS011;8746;49.230;9.220;2024-02-14T00:04:53;10.47;;;8.13;;
17259;SDS011;8746;49.230;9.220;2024-02-14T00:07:19;13.33;;;8.43;;
17259;SDS011;8746;49.230;9.220;2024-02-14T00:09:45;9.40;;;7.90;;
17259;SDS011;8746;49.230;9.220;2024-02-14T00:12:10;10.90;;;9.17;;
17259;SDS011;8746;49.230;9.220;2024-02-14T00:14:36;12.20;;;8.07;;
17259;SDS011;8746;49.230;9.220;2024-02-14T00:17:02;11.30;;;7.53;;
17259;SDS011;8746;49.230;9.220;2024-02-14T00:19:28;10.80;;;8.13;;
17259;SDS011;8746;49.230;9.220;2024-02-14T00:21:54;9.77;;;8.20;;
17259;SDS011;8746;49.230;9.220;2024-02-14T00:24:19;10.50;;;7.83;;
17259;SDS011;8746;49.230;9.220;2024-02-14T00:26:44;7.93;;;7.10;;
17259;SDS011;8746;49.230;9.220;2024-02-14T00:29:11;10.47;;;7.00;;
17259;SDS011;8746;49.230;9.220;2024-02-14T00:31:36;9.30;;;7.23;;
17259;SDS011;8746;49.230;9.220;2024-02-14T00:34:01;9.27;;;8.23;;
17259;SDS011;8746;49.230;9.220;2024-02-14T00:36:27;9.23;;;7.57;;
17259;SDS011;8746;49.230;9.220;2024-02-14T00:38:52;8.83;;;7.63;;
17259;SDS011;8746;49.230;9.220;2024-02-14T00:41:18;11.00;;;8.07;;
17259;SDS011;8746;49.230;9.220;2024-02-14T00:43:43;10.47;;;8.53;;
17259;SDS011;8746;49.230;9.220;2024-02-14T00:46:08;9.67;;;8.27;;
17259;SDS011;8746;49.230;9.220;2024-02-14T00:48:34;9.43;;;7.67;;
17259;SDS011;8746;49.230;9.220;2024-02-14T00:50:59;11.83;;;7.83;;
17259;SDS011;8746;49.230;9.220;2024-02-14T00:53:25;8.53;;;7.33;;
17259;SDS011;8746;49.230;9.220;2024-02-14T00:55:50;8.53;;;7.63;;
17259;SDS011;8746;49.230;9.220;2024-02-14T00:58:16;10.10;;;8.43;;
17259;SDS011;8746;49.230;9.220;2024-02-14T01:00:42;12.27;;;8.10;;
17259;SDS011;8746;49.230;9.220;2024-02-14T01:03:08;8.10;;;7.30;;
17259;SDS011;8746;49.230;9.220;2024-02-14T01:05:37;11.50;;;7.80;;
17259;SDS011;8746;49.230;9.220;2024-02-14T01:08:03;12.07;;;8.87;;
17259;SDS011;8746;49.230;9.220;2024-02-14T01:10:28;10.67;;;8.37;;
17259;SDS011;8746;49.230;9.220;2024-02-14T01:12:53;9.43;;;8.07;;
17259;SDS011;8746;49.230;9.220;2024-02-14T01:15:19;9.97;;;8.30;;
17259;SDS011;8746;49.230;9.220;2024-02-14T01:17:47;10.43;;;8.47;;
17259;SDS011;8746;49.230;9.220;2024-02-14T01:20:12;11.77;;;8.13;;
17259;SDS011;8746;49.230;9.220;2024-02-14T01:22:37;10.10;;;7.30;;
17259;SDS011;8746;49.230;9.220;2024-02-14T01:25:03;11.03;;;8.23;;
17259;SDS011;8746;49.230;9.220;2024-02-14T01:27:29;10.37;;;8.33;;
17259;SDS011;8746;49.230;9.220;2024-02-14T01:29:55;9.47;;;8.30;;
17259;SDS011;8746;49.230;9.220;2024-02-14T01:32:22;10.40;;;8.40;;
17259;SDS011;8746;49.230;9.220;2024-02-14T01:34:47;10.80;;;8.47;;
17259;SDS011;8746;49.230;9.220;2024-02-14T01:37:13;10.23;;;8.13;;
17259;SDS011;8746;49.230;9.220;2024-02-14T01:39:39;11.70;;;8.20;;
17259;SDS011;8746;49.230;9.220;2024-02-14T01:42:04;9.13;;;8.10;;
17259;SDS011;8746;49.230;9.220;2024-02-14T01:44:32;8.43;;;7.63;;
17259;SDS011;8746;49.230;9.220;2024-02-14T01:46:58;11.50;;;8.00;;
17259;SDS011;8746;49.230;9.220;2024-02-14T01:49:23;9.40;;;7.97;;
17259;SDS011;8746;49.230;9.220;2024-02-14T01:51:53;10.53;;;7.93;;
17259;SDS011;8746;49.230;9.220;2024-02-14T01:54:23;10.00;;;8.23;;
17259;SDS011;8746;49.230;9.220;2024-02-14T01:56:50;9.03;;;7.87;;
17259;SDS011;8746;49.230;9.220;2024-02-14T01:59:16;9.73;;;7.77;;
17259;SDS011;8746;49.230;9.220;2024-02-14T02:01:42;9.10;;;7.03;;
17259;SDS011;8746;49.230;9.220;2024-02-14T02:04:07;8.10;;;7.20;;
17259;SDS011;8746;49.230;9.220;2024-02-14T02:06:33;10.03;;;7.97;;
17259;SDS011;8746;49.230;9.220;2024-02-14T02:08:59;8.10;;;7.13;;
17259;SDS011;8746;49.230;9.220;2024-02-14T02:11:25;9.43;;;7.53;;
17259;SDS011;8746;49.230;9.220;2024-02-14T02:13:51;10.13;;;7.23;;
17259;SDS011;8746;49.230;9.220;2024-02-14T02:16:16;8.97;;;7.57;;
17259;SDS011;8746;49.230;9.220;2024-02-14T02:18:44;11.17;;;7.10;;
17259;SDS011;8746;49.230;9.220;2024-02-14T02:21:10;8.63;;;7.50;;
17259;SDS011;8746;49.230;9.220;2024-02-14T02:23:37;7.70;;;7.00;;
17259;SDS011;8746;49.230;9.220;2024-02-14T02:26:03;10.63;;;7.37;;
17259;SDS011;8746;49.230;9.220;2024-02-14T02:28:29;7.60;;;6.77;;
17259;SDS011;8746;49.230;9.220;2024-02-14T02:30:54;8.63;;;7.10;;
17259;SDS011;8746;49.230;9.220;2024-02-14T02:33:20;8.87;;;7.10;;
17259;SDS011;8746;49.230;9.220;2024-02-14T02:35:47;7.73;;;7.00;;
17259;SDS011;8746;49.230;9.220;2024-02-14T02:38:13;10.47;;;6.90;;
17259;SDS011;8746;49.230;9.220;2024-02-14T02:40:38;7.13;;;6.40;;
17259;SDS011;8746;49.230;9.220;2024-02-14T02:43:04;8.43;;;6.60;;
17259;SDS011;8746;49.230;9.220;2024-02-14T02:45:30;8.07;;;6.70;;
17259;SDS011;8746;49.230;9.220;2024-02-14T02:47:56;8.13;;;6.70;;
17259;SDS011;8746;49.230;9.220;2024-02-14T02:50:21;7.13;;;6.33;;
17259;SDS011;8746;49.230;9.220;2024-02-14T02:52:47;8.90;;;6.47;;
17259;SDS011;8746;49.230;9.220;2024-02-14T02:55:13;7.60;;;6.80;;
17259;SDS011;8746;49.230;9.220;2024-02-14T02:57:40;8.63;;;6.27;;
17259;SDS011;8746;49.230;9.220;2024-02-14T03:00:06;7.30;;;6.47;;
17259;SDS011;8746;49.230;9.220;2024-02-14T03:02:36;7.80;;;6.30;;
17259;SDS011;8746;49.230;9.220;2024-02-14T03:05:05;9.27;;;6.57;;
17259;SDS011;8746;49.230;9.220;2024-02-14T03:07:36;10.47;;;6.60;;
17259;SDS011;8746;49.230;9.220;2024-02-14T03:10:02;8.77;;;6.50;;
17259;SDS011;8746;49.230;9.220;2024-02-14T03:12:28;7.10;;;6.07;;
17259;SDS011;8746;49.230;9.220;2024-02-14T03:14:55;8.00;;;6.47;;
17259;SDS011;8746;49.230;9.220;2024-02-14T03:17:22;8.13;;;5.73;;
17259;SDS011;8746;49.230;9.220;2024-02-14T03:19:47;7.00;;;6.23;;
17259;SDS011;8746;49.230;9.220;2024-02-14T03:22:13;6.70;;;6.00;;
17259;SDS011;8746;49.230;9.220;2024-02-14T03:24:39;7.03;;;6.13;;
17259;SDS011;8746;49.230;9.220;2024-02-14T03:27:04;7.23;;;5.40;;
17259;SDS011;8746;49.230;9.220;2024-02-14T03:29:30;7.07;;;5.60;;
17259;SDS011;8746;49.230;9.220;2024-02-14T03:31:55;10.00;;;5.80;;
17259;SDS011;8746;49.230;9.220;2024-02-14T03:34:23;6.40;;;5.67;;
17259;SDS011;8746;49.230;9.220;2024-02-14T03:36:50;8.20;;;5.90;;
17259;SDS011;8746;49.230;9.220;2024-02-14T03:39:15;6.73;;;5.50;;
17259;SDS011;8746;49.230;9.220;2024-02-14T03:41:42;6.83;;;5.50;;
17259;SDS011;8746;49.230;9.220;2024-02-14T03:44:07;7.27;;;5.80;;
17259;SDS011;8746;49.230;9.220;2024-02-14T03:46:34;8.90;;;5.93;;
17259;SDS011;8746;49.230;9.220;2024-02-14T03:49:00;7.40;;;5.60;;
17259;SDS011;8746;49.230;9.220;2024-02-14T03:51:25;7.13;;;5.97;;
17259;SDS011;8746;49.230;9.220;2024-02-14T03:53:51;7.07;;;5.77;;
17259;SDS011;8746;49.230;9.220;2024-02-14T03:56:16;7.23;;;6.00;;
17259;SDS011;8746;49.230;9.220;2024-02-14T03:58:42;6.20;;;5.60;;
17259;SDS011;8746;49.230;9.220;2024-02-14T04:01:08;8.90;;;5.90;;
17259;SDS011;8746;49.230;9.220;2024-02-14T04:03:33;7.20;;;5.83;;
17259;SDS011;8746;49.230;9.220;2024-02-14T04:05:59;6.93;;;6.23;;
17259;SDS011;8746;49.230;9.220;2024-02-14T04:08:24;6.97;;;6.20;;
17259;SDS011;8746;49.230;9.220;2024-02-14T04:10:50;5.83;;;5.23;;
17259;SDS011;8746;49.230;9.220;2024-02-14T04:13:15;6.93;;;5.53;;
17259;SDS011;8746;49.230;9.220;2024-02-14T04:15:41;7.40;;;5.47;;
17259;SDS011;8746;49.230;9.220;2024-02-14T04:18:10;6.73;;;5.57;;
17259;SDS011;8746;49.230;9.220;2024-02-14T04:20:36;7.20;;;5.83;;
17259;SDS011;8746;49.230;9.220;2024-02-14T04:23:01;6.03;;;5.40;;
17259;SDS011;8746;49.230;9.220;2024-02-14T04:25:26;6.53;;;5.33;;
17259;SDS011;8746;49.230;9.220;2024-02-14T04:27:52;6.90;;;5.77;;
17259;SDS011;8746;49.230;9.220;2024-02-14T04:30:17;9.17;;;5.80;;
17259;SDS011;8746;49.230;9.220;2024-02-14T04:32:42;7.10;;;5.47;;
17259;SDS011;8746;49.230;9.220;2024-02-14T04:35:08;7.67;;;5.60;;
17259;SDS011;8746;49.230;9.220;2024-02-14T04:37:34;7.07;;;5.63;;
17259;SDS011;8746;49.230;9.220;2024-02-14T04:39:59;7.13;;;5.77;;
17259;SDS011;8746;49.230;9.220;2024-02-14T04:42:25;9.13;;;5.70;;
17259;SDS011;8746;49.230;9.220;2024-02-14T04:44:50;7.80;;;5.83;;
17259;SDS011;8746;49.230;9.220;2024-02-14T04:47:15;9.70;;;5.67;;
17259;SDS011;8746;49.230;9.220;2024-02-14T04:49:40;6.80;;;6.03;;
17259;SDS011;8746;49.230;9.220;2024-02-14T04:52:06;6.47;;;5.87;;
17259;SDS011;8746;49.230;9.220;2024-02-14T04:54:32;6.90;;;6.20;;
17259;SDS011;8746;49.230;9.220;2024-02-14T04:56:58;7.40;;;6.23;;
17259;SDS011;8746;49.230;9.220;2024-02-14T04:59:24;6.83;;;6.13;;
17259;SDS011;8746;49.230;9.220;2024-02-14T05:01:49;9.63;;;6.20;;
17259;SDS011;8746;49.230;9.220;2024-02-14T05:04:15;7.13;;;5.60;;
17259;SDS011;8746;49.230;9.220;2024-02-14T05:06:41;6.00;;;5.40;;
17259;SDS011;8746;49.230;9.220;2024-02-14T05:09:07;7.00;;;6.30;;
17259;SDS011;8746;49.230;9.220;2024-02-14T05:11:36;7.10;;;5.77;;
17259;SDS011;8746;49.230;9.220;2024-02-14T05:14:02;7.10;;;6.07;;
17259;SDS011;8746;49.230;9.220;2024-02-14T05:16:27;7.10;;;5.60;;
17259;SDS011;8746;49.230;9.220;2024-02-14T05:18:52;6.80;;;6.17;;
17259;SDS011;8746;49.230;9.220;2024-02-14T05:21:19;7.33;;;5.27;;
17259;SDS011;8746;49.230;9.220;2024-02-14T05:23:45;7.03;;;6.33;;
17259;SDS011;8746;49.230;9.220;2024-02-14T05:26:10;7.20;;;6.00;;
17259;SDS011;8746;49.230;9.220;2024-02-14T05:28:35;8.10;;;6.20;;
17259;SDS011;8746;49.230;9.220;2024-02-14T05:31:01;7.63;;;5.70;;
17259;SDS011;8746;49.230;9.220;2024-02-14T05:33:28;9.13;;;6.83;;
17259;SDS011;8746;49.230;9.220;2024-02-14T05:35:53;6.70;;;5.77;;
17259;SDS011;8746;49.230;9.220;2024-02-14T05:38:19;9.63;;;6.67;;
17259;SDS011;8746;49.230;9.220;2024-02-14T05:40:45;8.10;;;6.20;;
17259;SDS011;8746;49.230;9.220;2024-02-14T05:43:14;6.73;;;5.87;;
17259;SDS011;8746;49.230;9.220;2024-02-14T05:45:39;10.07;;;7.47;;
17259;SDS011;8746;49.230;9.220;2024-02-14T05:48:06;10.97;;;8.30;;
17259;SDS011;8746;49.230;9.220;2024-02-14T05:50:31;8.93;;;8.03;;
17259;SDS011;8746;49.230;9.220;2024-02-14T05:52:57;11.40;;;7.80;;
17259;SDS011;8746;49.230;9.220;2024-02-14T05:55:23;9.00;;;6.60;;
17259;SDS011;8746;49.230;9.220;2024-02-14T05:57:49;7.77;;;6.13;;
17259;SDS011;8746;49.230;9.220;2024-02-14T06:00:21;7.70;;;6.37;;
17259;SDS011;8746;49.230;9.220;2024-02-14T06:02:47;8.40;;;6.20;;
17259;SDS011;8746;49.230;9.220;2024-02-14T06:05:13;7.10;;;5.90;;
17259;SDS011;8746;49.230;9.220;2024-02-14T06:07:39;10.23;;;6.77;;
17259;SDS011;8746;49.230;9.220;2024-02-14T06:10:05;7.77;;;5.93;;
17259;SDS011;8746;49.230;9.220;2024-02-14T06:12:31;9.00;;;6.13;;
17259;SDS011;8746;49.230;9.220;2024-02-14T06:14:57;7.30;;;6.50;;
17259;SDS011;8746;49.230;9.220;2024-02-14T06:17:22;7.20;;;5.57;;
17259;SDS011;8746;49.230;9.220;2024-02-14T06:19:48;7.63;;;5.87;;
17259;SDS011;8746;49.230;9.220;2024-02-14T06:22:13;6.63;;;5.93;;
17259;SDS011;8746;49.230;9.220;2024-02-14T06:24:38;8.30;;;5.93;;
17259;SDS011;8746;49.230;9.220;2024-02-14T06:27:04;9.63;;;6.90;;
17259;SDS011;8746;49.230;9.220;2024-02-14T06:29:29;11.17;;;6.30;;
17259;SDS011;8746;49.230;9.220;2024-02-14T06:31:55;6.67;;;5.90;;
17259;SDS011;8746;49.230;9.220;2024-02-14T06:34:20;8.77;;;5.37;;
17259;SDS011;8746;49.230;9.220;2024-02-14T06:36:48;7.33;;;6.17;;
17259;SDS011;8746;49.230;9.220;2024-02-14T06:39:14;7.73;;;6.60;;
17259;SDS011;8746;49.230;9.220;2024-02-14T06:41:39;8.47;;;6.90;;
17259;SDS011;8746;49.230;9.220;2024-02-14T06:44:05;8.53;;;6.60;;
17259;SDS011;8746;49.230;9.220;2024-02-14T06:46:30;6.73;;;5.73;;
17259;SDS011;8746;49.230;9.220;2024-02-14T06:48:56;7.97;;;5.77;;
17259;SDS011;8746;49.230;9.220;2024-02-14T06:51:21;7.43;;;6.10;;
17259;SDS011;8746;49.230;9.220;2024-02-14T06:53:49;7.63;;;6.13;;
17259;SDS011;8746;49.230;9.220;2024-02-14T06:56:14;9.03;;;6.07;;
17259;SDS011;8746;49.230;9.220;2024-02-14T06:58:40;6.30;;;5.70;;
17259;SDS011;8746;49.230;9.220;2024-02-14T07:01:05;8.40;;;5.57;;
17259;SDS011;8746;49.230;9.220;2024-02-14T07:03:31;7.70;;;5.50;;
17259;SDS011;8746;49.230;9.220;2024-02-14T07:05:56;8.87;;;6.13;;
17259;SDS011;8746;49.230;9.220;2024-02-14T07:08:22;9.00;;;6.33;;
17259;SDS011;8746;49.230;9.220;2024-02-14T07:10:48;7.80;;;5.83;;
17259;SDS011;8746;49.230;9.220;2024-02-14T07:13:13;6.03;;;5.43;;
17259;SDS011;8746;49.230;9.220;2024-02-14T07:15:39;6.73;;;5.93;;
17259;SDS011;8746;49.230;9.220;2024-02-14T07:18:04;8.93;;;5.63;;
17259;SDS011;8746;49.230;9.220;2024-02-14T07:20:30;11.63;;;5.60;;
17259;SDS011;8746;49.230;9.220;2024-02-14T07:22:55;8.87;;;5.77;;
17259;SDS011;8746;49.230;9.220;2024-02-14T07:25:21;10.77;;;5.77;;
17259;SDS011;8746;49.230;9.220;2024-02-14T07:27:47;7.97;;;5.27;;
17259;SDS011;8746;49.230;9.220;2024-02-14T07:30:14;9.23;;;6.10;;
17259;SDS011;8746;49.230;9.220;2024-02-14T07:32:40;9.33;;;4.93;;
17259;SDS011;8746;49.230;9.220;2024-02-14T07:35:06;10.13;;;5.07;;
17259;SDS011;8746;49.230;9.220;2024-02-14T07:37:32;10.80;;;5.27;;
17259;SDS011;8746;49.230;9.220;2024-02-14T07:39:57;8.60;;;5.23;;
17259;SDS011;8746;49.230;9.220;2024-02-14T07:42:22;8.70;;;5.00;;
17259;SDS011;8746;49.230;9.220;2024-02-14T07:44:48;9.70;;;4.43;;
17259;SDS011;8746;49.230;9.220;2024-02-14T07:47:13;6.00;;;4.27;;
17259;SDS011;8746;49.230;9.220;2024-02-14T07:49:39;7.17;;;4.17;;
17259;SDS011;8746;49.230;9.220;2024-02-14T07:52:05;6.57;;;3.97;;
17259;SDS011;8746;49.230;9.220;2024-02-14T07:54:31;7.63;;;3.87;;
17259;SDS011;8746;49.230;9.220;2024-02-14T07:56:56;5.60;;;3.80;;
17259;SDS011;8746;49.230;9.220;2024-02-14T07:59:21;8.43;;;4.33;;
17259;SDS011;8746;49.230;9.220;2024-02-14T08:01:47;5.47;;;3.70;;
17259;SDS011;8746;49.230;9.220;2024-02-14T08:04:12;9.10;;;4.53;;
17259;SDS011;8746;49.230;9.220;2024-02-14T08:06:37;4.87;;;3.63;;
17259;SDS011;8746;49.230;9.220;2024-02-14T08:09:03;7.03;;;3.50;;
17259;SDS011;8746;49.230;9.220;2024-02-14T08:11:31;7.70;;;3.60;;
17259;SDS011;8746;49.230;9.220;2024-02-14T08:13:56;5.53;;;3.53;;
17259;SDS011;8746;49.230;9.220;2024-02-14T08:16:23;7.87;;;3.73;;
17259;SDS011;8746;49.230;9.220;2024-02-14T08:18:48;8.70;;;4.10;;
17259;SDS011;8746;49.230;9.220;2024-02-14T08:21:16;8.43;;;4.20;;
17259;SDS011;8746;49.230;9.220;2024-02-14T08:23:41;7.27;;;3.67;;
17259;SDS011;8746;49.230;9.220;2024-02-14T08:26:07;9.50;;;4.23;;
17259;SDS011;8746;49.230;9.220;2024-02-14T08:28:36;7.33;;;3.90;;
17259;SDS011;8746;49.230;9.220;2024-02-14T08:31:11;5.90;;;3.47;;
17259;SDS011;8746;49.230;9.220;2024-02-14T08:33:36;10.90;;;3.80;;
17259;SDS011;8746;49.230;9.220;2024-02-14T08:36:03;4.47;;;3.47;;
17259;SDS011;8746;49.230;9.220;2024-02-14T08:38:28;5.03;;;3.80;;
17259;SDS011;8746;49.230;9.220;2024-02-14T08:40:54;5.10;;;3.53;;
17259;SDS011;8746;49.230;9.220;2024-02-14T08:43:19;6.70;;;3.73;;
17259;SDS011;8746;49.230;9.220;2024-02-14T08:45:44;5.57;;;3.60;;
17259;SDS011;8746;49.230;9.220;2024-02-14T08:48:10;5.67;;;3.50;;
17259;SDS011;8746;49.230;9.220;2024-02-14T08:50:35;9.07;;;3.70;;
17259;SDS011;8746;49.230;9.220;2024-02-14T08:53:01;6.53;;;3.50;;
17259;SDS011;8746;49.230;9.220;2024-02-14T08:55:26;5.87;;;3.50;;
17259;SDS011;8746;49.230;9.220;2024-02-14T08:57:52;6.27;;;3.43;;
17259;SDS011;8746;49.230;9.220;2024-02-14T09:00:17;5.43;;;3.57;;
17259;SDS011;8746;49.230;9.220;2024-02-14T09:02:47;5.57;;;3.50;;
17259;SDS011;8746;49.230;9.220;2024-02-14T09:05:13;5.43;;;3.40;;
17259;SDS011;8746;49.230;9.220;2024-02-14T09:07:39;5.77;;;3.20;;
17259;SDS011;8746;49.230;9.220;2024-02-14T09:10:06;5.17;;;3.10;;
17259;SDS011;8746;49.230;9.220;2024-02-14T09:12:32;4.30;;;3.00;;
17259;SDS011;8746;49.230;9.220;2024-02-14T09:14:58;6.07;;;3.47;;
17259;SDS011;8746;49.230;9.220;2024-02-14T09:17:24;4.90;;;3.10;;
17259;SDS011;8746;49.230;9.220;2024-02-14T09:19:49;4.33;;;3.03;;
17259;SDS011;8746;49.230;9.220;2024-02-14T09:22:16;6.83;;;3.60;;
17259;SDS011;8746;49.230;9.220;2024-02-14T09:24:46;4.33;;;3.20;;
17259;SDS011;8746;49.230;9.220;2024-02-14T09:27:13;5.33;;;3.37;;
17259;SDS011;8746;49.230;9.220;2024-02-14T09:29:38;4.60;;;3.17;;
17259;SDS011;8746;49.230;9.220;2024-02-14T09:32:04;5.50;;;3.17;;
17259;SDS011;8746;49.230;9.220;2024-02-14T09:34:30;3.80;;;3.00;;
17259;SDS011;8746;49.230;9.220;2024-02-14T09:36:56;6.17;;;3.00;;
17259;SDS011;8746;49.230;9.220;2024-02-14T09:39:23;8.17;;;3.30;;
17259;SDS011;8746;49.230;9.220;2024-02-14T09:41:52;4.43;;;2.90;;
17259;SDS011;8746;49.230;9.220;2024-02-14T09:44:25;4.20;;;2.77;;
17259;SDS011;8746;49.230;9.220;2024-02-14T09:46:53;5.40;;;2.83;;
17259;SDS011;8746;49.230;9.220;2024-02-14T09:49:20;6.20;;;2.70;;
17259;SDS011;8746;49.230;9.220;2024-02-14T09:51:46;3.50;;;2.60;;
17259;SDS011;8746;49.230;9.220;2024-02-14T09:54:14;7.37;;;2.80;;
17259;SDS011;8746;49.230;9.220;2024-02-14T09:56:41;3.50;;;2.60;;
17259;SDS011;8746;49.230;9.220;2024-02-14T09:59:06;3.10;;;2.57;;
17259;SDS011;8746;49.230;9.220;2024-02-14T10:01:32;5.37;;;2.43;;
17259;SDS011;8746;49.230;9.220;2024-02-14T10:03:57;3.33;;;2.53;;
17259;SDS011;8746;49.230;9.220;2024-02-14T10:06:23;4.13;;;2.93;;
17259;SDS011;8746;49.230;9.220;2024-02-14T10:08:50;4.63;;;2.50;;
17259;SDS011;8746;49.230;9.220;2024-02-14T10:11:19;2.80;;;2.50;;
17259;SDS011;8746;49.230;9.220;2024-02-14T10:13:49;3.50;;;2.50;;
17259;SDS011;8746;49.230;9.220;2024-02-14T10:16:16;4.07;;;2.50;;
17259;SDS011;8746;49.230;9.220;2024-02-14T10:18:43;3.33;;;2.37;;
17259;SDS011;8746;49.230;9.220;2024-02-14T10:21:14;4.40;;;2.40;;
17259;SDS011;8746;49.230;9.220;2024-02-14T10:23:41;3.33;;;2.23;;
17259;SDS011;8746;49.230;9.220;2024-02-14T10:26:08;3.83;;;2.53;;
17259;SDS011;8746;49.230;9.220;2024-02-14T10:28:33;3.37;;;2.30;;
17259;SDS011;8746;49.230;9.220;2024-02-14T10:30:59;6.83;;;2.23;;
17259;SDS011;8746;49.230;9.220;2024-02-14T10:33:27;2.10;;;1.90;;
17259;SDS011;8746;49.230;9.220;2024-02-14T10:35:54;5.30;;;2.20;;
17259;SDS011;8746;49.230;9.220;2024-02-14T10:38:21;4.50;;;2.30;;
17259;SDS011;8746;49.230;9.220;2024-02-14T10:40:47;4.03;;;2.60;;
17259;SDS011;8746;49.230;9.220;2024-02-14T10:43:13;3.20;;;2.30;;
17259;SDS011;8746;49.230;9.220;2024-02-14T10:45:39;2.40;;;2.20;;
17259;SDS011;8746;49.230;9.220;2024-02-14T10:48:05;3.93;;;2.30;;
17259;SDS011;8746;49.230;9.220;2024-02-14T10:50:34;3.07;;;2.10;;
17259;SDS011;8746;49.230;9.220;2024-02-14T10:53:04;4.03;;;2.60;;
17259;SDS011;8746;49.230;9.220;2024-02-14T10:55:31;4.77;;;2.27;;
17259;SDS011;8746;49.230;9.220;2024-02-14T10:57:58;5.47;;;2.50;;
17259;SDS011;8746;49.230;9.220;2024-02-14T11:00:25;6.23;;;2.23;;
17259;SDS011;8746;49.230;9.220;2024-02-14T11:02:51;4.77;;;2.70;;
17259;SDS011;8746;49.230;9.220;2024-02-14T11:05:18;5.00;;;2.87;;
17259;SDS011;8746;49.230;9.220;2024-02-14T11:07:48;6.17;;;3.27;;
17259;SDS011;8746;49.230;9.220;2024-02-14T11:10:17;5.40;;;2.70;;
17259;SDS011;8746;49.230;9.220;2024-02-14T11:12:43;5.90;;;3.30;;
17259;SDS011;8746;49.230;9.220;2024-02-14T11:15:27;72.57;;;31.47;;
17259;SDS011;8746;49.230;9.220;2024-02-14T11:18:03;6.43;;;3.13;;
17259;SDS011;8746;49.230;9.220;2024-02-14T11:20:33;6.87;;;2.90;;
17259;SDS011;8746;49.230;9.220;2024-02-14T11:23:04;4.80;;;3.33;;
17259;SDS011;8746;49.230;9.220;2024-02-14T11:25:36;4.27;;;2.93;;
17259;SDS011;8746;49.230;9.220;2024-02-14T11:28:12;5.63;;;3.43;;
17259;SDS011;8746;49.230;9.220;2024-02-14T11:30:39;3.97;;;2.07;;
17259;SDS011;8746;49.230;9.220;2024-02-14T11:35:46;3.13;;;2.03;;
17259;SDS011;8746;49.230;9.220;2024-02-14T11:38:14;2.97;;;1.87;;
17259;SDS011;8746;49.230;9.220;2024-02-14T11:40:39;1.70;;;1.60;;
17259;SDS011;8746;49.230;9.220;2024-02-14T11:43:17;3.23;;;1.90;;
17259;SDS011;8746;49.230;9.220;2024-02-14T11:45:43;4.70;;;2.67;;
17259;SDS011;8746;49.230;9.220;2024-02-14T11:48:11;1.80;;;1.70;;
17259;SDS011;8746;49.230;9.220;2024-02-14T11:50:40;4.30;;;1.90;;
17259;SDS011;8746;49.230;9.220;2024-02-14T11:53:06;2.63;;;1.70;;
17259;SDS011;8746;49.230;9.220;2024-02-14T11:55:36;4.83;;;1.87;;
17259;SDS011;8746;49.230;9.220;2024-02-14T12:00:36;3.17;;;1.87;;
17259;SDS011;8746;49.230;9.220;2024-02-14T12:03:03;3.87;;;1.90;;
17259;SDS011;8746;49.230;9.220;2024-02-14T12:05:32;4.47;;;2.40;;
17259;SDS011;8746;49.230;9.220;2024-02-14T12:07:58;7.67;;;2.50;;
17259;SDS011;8746;49.230;9.220;2024-02-14T12:10:24;3.30;;;2.20;;
17259;SDS011;8746;49.230;9.220;2024-02-14T12:12:49;6.17;;;2.97;;
17259;SDS011;8746;49.230;9.220;2024-02-14T12:15:16;5.63;;;2.57;;
17259;SDS011;8746;49.230;9.220;2024-02-14T12:17:41;5.63;;;2.60;;
17259;SDS011;8746;49.230;9.220;2024-02-14T12:20:10;4.87;;;2.40;;
17259;SDS011;8746;49.230;9.220;2024-02-14T12:22:38;2.67;;;1.90;;
17259;SDS011;8746;49.230;9.220;2024-02-14T12:25:05;3.23;;;1.63;;
17259;SDS011;8746;49.230;9.220;2024-02-14T12:27:33;3.33;;;2.13;;
17259;SDS011;8746;49.230;9.220;2024-02-14T12:29:59;3.63;;;2.07;;
17259;SDS011;8746;49.230;9.220;2024-02-14T12:32:24;3.10;;;2.50;;
17259;SDS011;8746;49.230;9.220;2024-02-14T12:34:49;3.60;;;2.03;;
17259;SDS011;8746;49.230;9.220;2024-02-14T12:37:15;2.90;;;2.00;;
17259;SDS011;8746;49.230;9.220;2024-02-14T12:39:40;3.93;;;1.60;;
17259;SDS011;8746;49.230;9.220;2024-02-14T12:42:05;3.77;;;1.77;;
17259;SDS011;8746;49.230;9.220;2024-02-14T12:44:31;5.40;;;1.73;;
17259;SDS011;8746;49.230;9.220;2024-02-14T12:46:56;4.60;;;2.10;;
17259;SDS011;8746;49.230;9.220;2024-02-14T12:49:22;3.40;;;1.87;;
17259;SDS011;8746;49.230;9.220;2024-02-14T12:51:51;4.60;;;1.90;;
17259;SDS011;8746;49.230;9.220;2024-02-14T12:54:16;3.47;;;1.90;;
17259;SDS011;8746;49.230;9.220;2024-02-14T12:56:42;3.87;;;1.73;;
17259;SDS011;8746;49.230;9.220;2024-02-14T12:59:07;2.93;;;1.57;;
17259;SDS011;8746;49.230;9.220;2024-02-14T13:01:37;3.70;;;1.50;;
17259;SDS011;8746;49.230;9.220;2024-02-14T13:04:02;2.07;;;1.40;;
17259;SDS011;8746;49.230;9.220;2024-02-14T13:06:30;2.67;;;1.77;;
17259;SDS011;8746;49.230;9.220;2024-02-14T13:08:56;3.20;;;1.60;;
17259;SDS011;8746;49.230;9.220;2024-02-14T13:11:21;4.47;;;1.60;;
17259;SDS011;8746;49.230;9.220;2024-02-14T13:13:46;1.90;;;1.47;;
17259;SDS011;8746;49.230;9.220;2024-02-14T13:16:12;2.77;;;1.80;;
17259;SDS011;8746;49.230;9.220;2024-02-14T13:18:38;4.20;;;2.03;;
17259;SDS011;8746;49.230;9.220;2024-02-14T13:21:03;2.57;;;2.03;;
17259;SDS011;8746;49.230;9.220;2024-02-14T13:23:30;2.73;;;1.70;;
17259;SDS011;8746;49.230;9.220;2024-02-14T13:25:56;2.17;;;1.80;;
17259;SDS011;8746;49.230;9.220;2024-02-14T13:28:21;4.93;;;1.57;;
17259;SDS011;8746;49.230;9.220;2024-02-14T13:30:46;2.63;;;2.10;;
17259;SDS011;8746;49.230;9.220;2024-02-14T13:33:14;2.50;;;1.87;;
17259;SDS011;8746;49.230;9.220;2024-02-14T13:35:40;1.60;;;1.50;;
17259;SDS011;8746;49.230;9.220;2024-02-14T13:38:05;3.30;;;1.57;;
17259;SDS011;8746;49.230;9.220;2024-02-14T13:40:31;2.53;;;1.70;;
17259;SDS011;8746;49.230;9.220;2024-02-14T13:42:56;4.00;;;1.60;;
17259;SDS011;8746;49.230;9.220;2024-02-14T13:45:22;2.43;;;1.73;;
17259;SDS011;8746;49.230;9.220;2024-02-14T13:47:48;5.63;;;1.53;;
17259;SDS011;8746;49.230;9.220;2024-02-14T13:50:13;3.43;;;1.60;;
17259;SDS011;8746;49.230;9.220;2024-02-14T13:52:39;3.03;;;1.53;;
17259;SDS011;8746;49.230;9.220;2024-02-14T13:55:04;2.27;;;1.30;;
17259;SDS011;8746;49.230;9.220;2024-02-14T13:57:39;1.50;;;1.23;;
17259;SDS011;8746;49.230;9.220;2024-02-14T14:00:08;3.77;;;1.40;;
17259;SDS011;8746;49.230;9.220;2024-02-14T14:02:37;1.57;;;1.10;;
17259;SDS011;8746;49.230;9.220;2024-02-14T14:05:07;2.17;;;1.40;;
17259;SDS011;8746;49.230;9.220;2024-02-14T14:07:37;3.00;;;1.30;;
17259;SDS011;8746;49.230;9.220;2024-02-14T14:10:04;2.73;;;2.00;;
17259;SDS011;8746;49.230;9.220;2024-02-14T14:12:35;3.90;;;2.90;;
17259;SDS011;8746;49.230;9.220;2024-02-14T14:15:01;3.43;;;2.30;;
17259;SDS011;8746;49.230;9.220;2024-02-14T14:17:27;2.07;;;1.70;;
17259;SDS011;8746;49.230;9.220;2024-02-14T14:19:53;5.30;;;2.77;;
17259;SDS011;8746;49.230;9.220;2024-02-14T14:22:19;2.83;;;1.90;;
17259;SDS011;8746;49.230;9.220;2024-02-14T14:24:44;3.67;;;2.10;;
17259;SDS011;8746;49.230;9.220;2024-02-14T14:27:10;2.63;;;2.23;;
17259;SDS011;8746;49.230;9.220;2024-02-14T14:29:41;6.17;;;3.00;;
17259;SDS011;8746;49.230;9.220;2024-02-14T14:32:07;6.67;;;3.27;;
17259;SDS011;8746;49.230;9.220;2024-02-14T14:34:33;9.73;;;5.27;;
17259;SDS011;8746;49.230;9.220;2024-02-14T14:36:58;5.67;;;3.30;;
17259;SDS011;8746;49.230;9.220;2024-02-14T14:39:24;2.90;;;2.20;;
17259;SDS011;8746;49.230;9.220;2024-02-14T14:41:49;2.27;;;1.60;;
17259;SDS011;8746;49.230;9.220;2024-02-14T14:44:16;3.93;;;1.50;;
17259;SDS011;8746;49.230;9.220;2024-02-14T14:46:41;2.17;;;1.80;;
17259;SDS011;8746;49.230;9.220;2024-02-14T14:49:10;3.03;;;2.20;;
17259;SDS011;8746;49.230;9.220;2024-02-14T14:51:36;2.17;;;1.50;;
17259;SDS011;8746;49.230;9.220;2024-02-14T14:54:03;5.67;;;2.10;;
17259;SDS011;8746;49.230;9.220;2024-02-14T14:56:29;3.07;;;1.67;;
17259;SDS011;8746;49.230;9.220;2024-02-14T14:58:55;1.30;;;1.20;;